Time,TemperatureF,DewpointF,PressureIn,WindDirection,WindDirectionDegrees,WindSpeedMPH,WindSpeedGustMPH,Humidity,HourlyPrecipIn,Conditions,Clouds,dailyrainin,SoftwareType,DateUTC
2013-02-08 00:05:00,28.5,28.0,29.76,NW,304,10.0,-999.0,97,-99.99,,,0.00,weatherlink.com 1.10,2013-02-08 08:05:00,
2013-02-08 00:20:00,28.4,28.0,29.77,SW,219,5.0,-999.0,97,-99.99,,,0.00,weatherlink.com 1.10,2013-02-08 08:20:00,
2013-02-08 00:50:00,27.5,27.0,29.77,SSW,212,0.0,-999.0,97,-99.99,,,0.00,weatherlink.com 1.10,2013-02-08 08:50:00,
2013-02-08 01:20:00,26.9,26.0,29.82,North,0,3.0,-999.0,96,-99.99,,,0.00,weatherlink.com 1.10,2013-02-08 09:20:00,
2013-02-08 01:37:00,26.0,25.0,29.83,North,350,0.0,-999.0,96,-99.99,,,0.00,weatherlink.com 1.10,2013-02-08 09:37:00,
2013-02-08 01:50:00,25.4,24.0,29.83,SW,232,4.0,-999.0,95,-99.99,,,0.00,weatherlink.com 1.10,2013-02-08 09:50:00,
2013-02-08 02:05:00,25.4,24.0,29.82,WNW,289,0.0,-999.0,95,-99.99,,,0.00,weatherlink.com 1.10,2013-02-08 10:05:00,
2013-02-08 02:37:00,24.7,24.0,29.85,West,281,5.0,-999.0,95,-99.99,,,0.00,weatherlink.com 1.10,2013-02-08 10:37:00,
2013-02-08 02:50:00,24.5,23.0,29.85,West,261,4.0,-999.0,95,-99.99,,,0.00,weatherlink.com 1.10,2013-02-08 10:50:00,
2013-02-08 03:05:00,24.4,23.0,29.85,WNW,282,3.0,-999.0,94,-99.99,,,0.00,weatherlink.com 1.10,2013-02-08 11:05:00,
2013-02-08 03:20:00,24.1,23.0,29.87,West,277,1.0,-999.0,94,-99.99,,,0.00,weatherlink.com 1.10,2013-02-08 11:20:00,
2013-02-08 03:35:00,24.1,23.0,29.86,NW,319,1.0,-999.0,95,-99.99,,,0.00,weatherlink.com 1.10,2013-02-08 11:35:00,
2013-02-08 03:51:00,24.1,23.0,29.85,NNW,343,0.0,-999.0,94,-99.99,,,0.00,weatherlink.com 1.10,2013-02-08 11:51:00,
2013-02-08 04:05:00,24.2,23.0,29.85,WSW,253,1.0,-999.0,95,-99.99,,,0.00,weatherlink.com 1.10,2013-02-08 12:05:00,
2013-02-08 04:20:00,24.5,23.0,29.85,West,281,3.0,-999.0,95,-99.99,,,0.00,weatherlink.com 1.10,2013-02-08 12:20:00,
2013-02-08 04:52:00,24.8,24.0,29.84,NNW,333,2.0,-999.0,95,-99.99,,,0.00,weatherlink.com 1.10,2013-02-08 12:52:00,
2013-02-08 05:05:00,24.7,24.0,29.84,West,264,6.0,-999.0,95,-99.99,,,0.00,weatherlink.com 1.10,2013-02-08 13:05:00,
2013-02-08 05:19:00,24.5,23.0,29.83,NE,52,1.0,-999.0,94,-99.99,,,0.00,weatherlink.com 1.10,2013-02-08 13:19:00,
2013-02-08 05:49:00,24.1,23.0,29.84,West,281,0.0,-999.0,94,-99.99,,,0.00,weatherlink.com 1.10,2013-02-08 13:49:00,
2013-02-08 06:05:00,23.9,23.0,29.84,NW,309,0.0,-999.0,94,-99.99,,,0.00,weatherlink.com 1.10,2013-02-08 14:05:00,
2013-02-08 06:19:00,23.8,22.0,29.85,WNW,296,4.0,-999.0,94,-99.99,,,0.00,weatherlink.com 1.10,2013-02-08 14:19:00,
2013-02-08 06:34:00,23.9,23.0,29.86,WNW,291,1.0,-999.0,94,-99.99,,,0.00,weatherlink.com 1.10,2013-02-08 14:34:00,
2013-02-08 07:19:00,23.9,23.0,29.86,West,278,7.0,-999.0,94,-99.99,,,0.00,weatherlink.com 1.10,2013-02-08 15:19:00,
2013-02-08 07:34:00,23.9,23.0,29.86,West,263,1.0,-999.0,94,-99.99,,,0.00,weatherlink.com 1.10,2013-02-08 15:34:00,
2013-02-08 08:06:00,24.1,23.0,29.86,West,261,0.0,-999.0,94,-99.99,,,0.00,weatherlink.com 1.10,2013-02-08 16:06:00,
2013-02-08 08:22:00,24.4,23.0,29.86,West,277,0.0,-999.0,94,-99.99,,,0.00,weatherlink.com 1.10,2013-02-08 16:22:00,
2013-02-08 08:35:00,24.8,23.0,29.85,West,263,0.0,-999.0,94,-99.99,,,0.00,weatherlink.com 1.10,2013-02-08 16:35:00,
2013-02-08 09:05:00,25.0,24.0,29.85,WNW,285,3.0,-999.0,95,-99.99,,,0.00,weatherlink.com 1.10,2013-02-08 17:05:00,
2013-02-08 09:20:00,25.6,24.0,29.85,WNW,298,1.0,-999.0,95,-99.99,,,0.00,weatherlink.com 1.10,2013-02-08 17:20:00,
2013-02-08 09:49:00,27.0,26.0,29.83,WNW,291,6.0,-999.0,95,-99.99,,,0.00,weatherlink.com 1.10,2013-02-08 17:49:00,
2013-02-08 10:04:00,27.5,26.0,29.83,WSW,239,10.0,-999.0,95,-99.99,,,0.00,weatherlink.com 1.10,2013-02-08 18:04:00,
2013-02-08 10:20:00,27.5,26.0,29.83,WSW,251,2.0,-999.0,95,-99.99,,,0.00,weatherlink.com 1.10,2013-02-08 18:20:00,
2013-02-08 10:50:00,27.6,26.0,29.83,WNW,294,4.0,-999.0,95,-99.99,,,0.00,weatherlink.com 1.10,2013-02-08 18:50:00,
2013-02-08 11:05:00,26.7,26.0,29.83,WSW,237,0.0,-999.0,95,-99.99,,,0.00,weatherlink.com 1.10,2013-02-08 19:05:00,
2013-02-08 11:23:00,27.5,27.0,29.83,WNW,295,2.0,-999.0,96,-99.99,,,0.00,weatherlink.com 1.10,2013-02-08 19:23:00,
2013-02-08 11:35:00,27.3,26.0,29.82,WNW,287,3.0,-999.0,95,-99.99,,,0.00,weatherlink.com 1.10,2013-02-08 19:35:00,
2013-02-08 11:52:00,26.2,25.0,29.82,WNW,288,0.0,-999.0,95,-99.99,,,0.00,weatherlink.com 1.10,2013-02-08 19:52:00,
2013-02-08 12:04:00,26.0,25.0,29.82,WNW,288,0.0,-999.0,95,-99.99,,,0.00,weatherlink.com 1.10,2013-02-08 20:04:00,
2013-02-08 12:34:00,26.9,26.0,29.80,WNW,301,0.0,-999.0,96,-99.99,,,0.02,weatherlink.com 1.10,2013-02-08 20:34:00,
2013-02-08 12:50:00,27.2,26.0,29.80,NNW,333,1.0,-999.0,95,-99.99,,,0.03,weatherlink.com 1.10,2013-02-08 20:50:00,
2013-02-08 13:19:00,25.9,25.0,29.81,WNW,288,0.0,-999.0,95,-99.99,,,0.04,weatherlink.com 1.10,2013-02-08 21:19:00,
2013-02-08 13:37:00,25.4,24.0,29.81,WNW,288,0.0,-999.0,95,-99.99,,,0.04,weatherlink.com 1.10,2013-02-08 21:37:00,
2013-02-08 13:49:00,25.6,24.0,29.81,WNW,302,0.0,-999.0,95,-99.99,,,0.05,weatherlink.com 1.10,2013-02-08 21:49:00,
2013-02-08 14:06:00,26.0,25.0,29.81,NW,304,6.0,-999.0,94,-99.99,,,0.05,weatherlink.com 1.10,2013-02-08 22:06:00,
2013-02-08 14:22:00,25.7,25.0,29.80,NW,308,0.0,-999.0,95,-99.99,,,0.05,weatherlink.com 1.10,2013-02-08 22:22:00,
2013-02-08 14:36:00,25.6,24.0,29.80,NNW,340,0.0,-999.0,95,-99.99,,,0.05,weatherlink.com 1.10,2013-02-08 22:36:00,
2013-02-08 15:19:00,23.9,23.0,29.83,North,357,0.0,-999.0,94,-99.99,,,0.05,weatherlink.com 1.10,2013-02-08 23:19:00,
2013-02-08 15:34:00,24.5,23.0,29.82,SE,141,0.0,-999.0,94,-99.99,,,0.05,weatherlink.com 1.10,2013-02-08 23:34:00,
2013-02-08 15:49:00,24.7,23.0,29.82,NNW,333,5.0,-999.0,94,-99.99,,,0.05,weatherlink.com 1.10,2013-02-08 23:49:00,
2013-02-08 16:04:00,24.4,23.0,29.82,SE,141,0.0,-999.0,94,-99.99,,,0.05,weatherlink.com 1.10,2013-02-09 00:04:00,
2013-02-08 16:19:00,24.5,23.0,29.80,West,281,7.0,-999.0,95,-99.99,,,0.05,weatherlink.com 1.10,2013-02-09 00:19:00,
2013-02-08 17:24:00,23.9,23.0,29.82,West,280,0.0,-999.0,94,-99.99,,,0.05,weatherlink.com 1.10,2013-02-09 01:24:00,
2013-02-08 17:37:00,24.2,23.0,29.82,SSW,213,3.0,-999.0,95,-99.99,,,0.05,weatherlink.com 1.10,2013-02-09 01:37:00,
2013-02-08 17:51:00,23.9,23.0,29.82,NNW,339,2.0,-999.0,94,-99.99,,,0.05,weatherlink.com 1.10,2013-02-09 01:51:00,
2013-02-08 18:06:00,23.8,22.0,29.82,West,270,2.0,-999.0,94,-99.99,,,0.05,weatherlink.com 1.10,2013-02-09 02:06:00,
2013-02-08 18:22:00,23.6,22.0,29.82,WNW,301,7.0,-999.0,94,-99.99,,,0.05,weatherlink.com 1.10,2013-02-09 02:22:00,
2013-02-08 18:36:00,23.8,22.0,29.82,NW,326,5.0,-999.0,94,-99.99,,,0.05,weatherlink.com 1.10,2013-02-09 02:36:00,
2013-02-08 18:52:00,23.9,23.0,29.83,West,275,3.0,-999.0,94,-99.99,,,0.05,weatherlink.com 1.10,2013-02-09 02:52:00,
2013-02-08 19:07:00,24.1,23.0,29.83,NNW,333,2.0,-999.0,94,-99.99,,,0.05,weatherlink.com 1.10,2013-02-09 03:07:00,
2013-02-08 19:50:00,23.8,22.0,29.86,WNW,285,5.0,-999.0,94,-99.99,,,0.05,weatherlink.com 1.10,2013-02-09 03:50:00,
2013-02-08 20:06:00,23.9,23.0,29.86,West,280,0.0,-999.0,94,-99.99,,,0.05,weatherlink.com 1.10,2013-02-09 04:06:00,
2013-02-08 20:21:00,24.1,23.0,29.86,WNW,294,2.0,-999.0,94,-99.99,,,0.05,weatherlink.com 1.10,2013-02-09 04:21:00,
2013-02-08 20:37:00,23.9,23.0,29.86,NW,304,1.0,-999.0,94,-99.99,,,0.05,weatherlink.com 1.10,2013-02-09 04:37:00,
2013-02-08 21:38:00,23.3,22.0,29.86,West,263,2.0,-999.0,94,-99.99,,,0.05,weatherlink.com 1.10,2013-02-09 05:38:00,
2013-02-08 21:52:00,23.4,22.0,29.86,WNW,298,2.0,-999.0,94,-99.99,,,0.05,weatherlink.com 1.10,2013-02-09 05:52:00,
2013-02-08 22:38:00,23.1,22.0,29.87,WNW,291,0.0,-999.0,94,-99.99,,,0.05,weatherlink.com 1.10,2013-02-09 06:38:00,
2013-02-08 22:52:00,23.1,22.0,29.87,NW,312,0.0,-999.0,94,-99.99,,,0.05,weatherlink.com 1.10,2013-02-09 06:52:00,
2013-02-08 23:19:00,23.0,22.0,29.88,WNW,299,0.0,-999.0,94,-99.99,,,0.05,weatherlink.com 1.10,2013-02-09 07:19:00,
2013-02-08 23:57:00,22.8,21.0,29.89,WNW,296,4.0,-999.0,94,-99.99,,,0.05,weatherlink.com 1.10,2013-02-09 07:57:00,